Time;durP1;ratioP1;P1;durP2;ratioP2;P2;SDS_P1;SDS_P2;PMS_P1;PMS_P2;Temp;Humidity;BMP_temperature;BMP_pressure;BME280_temperature;BME280_humidity;BME280_pressure;Samples;Min_cycle;Max_cycle;Signal;HPM_P1;HPM_P2
2023/03/24 00:01:04;;;;;;;20.58;13.70;;;;;;;6.72;99.26;100329.06;4986837;28;20141;-27
2023/03/24 00:03:30;;;;;;;18.48;12.10;;;;;;;6.21;100.00;100323.72;4986838;28;20027;-27
2023/03/24 00:06:00;;;;;;;16.55;11.18;;;;;;;6.15;100.00;100298.81;4986748;28;20037;-27
2023/03/24 00:08:29;;;;;;;15.63;10.82;;;;;;;6.38;100.00;100322.53;4986870;28;20027;-27
2023/03/24 00:10:58;;;;;;;18.35;11.40;;;;;;;6.01;100.00;100311.06;4986862;28;20168;-27
2023/03/24 00:13:24;;;;;;;17.17;11.77;;;;;;;6.41;100.00;100319.50;4986698;28;20031;-27
2023/03/24 00:15:50;;;;;;;20.10;11.98;;;;;;;6.00;100.00;100325.28;4986575;28;20472;-27
2023/03/24 00:18:15;;;;;;;17.30;12.25;;;;;;;5.81;97.99;100316.03;4986766;28;20019;-27
2023/03/24 00:20:44;;;;;;;16.20;10.88;;;;;;;5.75;100.00;100315.94;4986706;28;20041;-27
2023/03/24 00:23:11;;;;;;;16.50;11.10;;;;;;;5.23;100.00;100323.69;4986492;28;20037;-27
2023/03/24 00:25:38;;;;;;;14.73;10.30;;;;;;;5.01;100.00;100314.75;4986566;28;20118;-27
2023/03/24 00:28:06;;;;;;;35.53;12.63;;;;;;;5.23;100.00;100312.25;4986752;28;20514;-27
2023/03/24 00:30:34;;;;;;;19.83;12.43;;;;;;;5.34;100.00;100313.69;4986776;28;20057;-27
2023/03/24 00:33:00;;;;;;;20.48;12.57;;;;;;;5.54;100.00;100314.00;4986502;28;20045;-27
2023/03/24 00:35:27;;;;;;;20.65;12.57;;;;;;;5.53;100.00;100296.47;4986503;28;20486;-27
2023/03/24 00:37:53;;;;;;;20.55;12.40;;;;;;;5.60;100.00;100300.06;4989274;28;20026;-27
2023/03/24 00:40:21;;;;;;;18.40;11.38;;;;;;;5.63;100.00;100303.16;4990226;28;20026;-27
2023/03/24 00:42:47;;;;;;;;;;;;;;;5.65;100.00;100295.03;4990492;28;20030;-27
2023/03/24 00:45:18;;;;;;;21.35;13.23;;;;;;;5.56;100.00;100286.38;4989805;28;19952;-27
2023/03/24 00:47:45;;;;;;;19.42;12.60;;;;;;;5.69;100.00;100306.09;4990171;28;20030;-26
2023/03/24 00:50:15;;;;;;;21.27;13.23;;;;;;;5.64;100.00;100283.63;4989842;28;20041;-27
2023/03/24 00:52:43;;;;;;;19.70;12.75;;;;;;;5.59;100.00;100301.06;4989927;28;20022;-27
2023/03/24 00:55:14;;;;;;;21.48;13.27;;;;;;;5.26;100.00;100304.00;4989898;28;20497;-27
2023/03/24 00:57:40;;;;;;;19.55;11.38;;;;;;;4.83;100.00;100295.72;4989814;28;20037;-27
2023/03/24 01:00:15;;;;;;;16.85;11.65;;;;;;;4.37;100.00;100296.50;4989297;28;20042;-27
2023/03/24 01:02:42;;;;;;;18.52;11.38;;;;;;;4.29;100.00;100285.97;4989639;28;20026;-27
2023/03/24 01:05:08;;;;;;;17.27;11.40;;;;;;;4.25;100.00;100297.88;4989235;28;20022;-27
2023/03/24 01:07:34;;;;;;;15.95;11.25;;;;;;;4.76;100.00;100294.78;4989982;28;20019;-27
2023/03/24 01:10:00;;;;;;;15.82;11.15;;;;;;;4.82;100.00;100276.41;4989467;28;20089;-27
2023/03/24 01:12:35;;;;;;;21.70;12.55;;;;;;;4.96;100.00;100264.22;4989343;28;20069;-27
2023/03/24 01:15:05;;;;;;;22.90;12.15;;;;;;;5.06;100.00;100301.00;4989256;28;20053;-27
2023/03/24 01:17:31;;;;;;;18.08;9.65;;;;;;;5.14;100.00;100292.19;4989384;28;20698;-27
2023/03/24 01:19:57;;;;;;;15.93;9.32;;;;;;;4.92;100.00;100278.81;4989279;28;20034;-27
2023/03/24 01:22:28;;;;;;;14.15;9.48;;;;;;;5.15;100.00;100285.91;4989530;28;20030;-27
2023/03/24 01:24:54;;;;;;;15.20;9.77;;;;;;;5.06;100.00;100279.88;4989459;28;20030;-27
2023/03/24 01:27:19;;;;;;;15.32;9.88;;;;;;;5.16;100.00;100283.09;4989157;28;20078;-27
2023/03/24 01:29:45;;;;;;;18.75;9.95;;;;;;;5.12;100.00;100281.78;4989242;28;20109;-27
2023/03/24 01:32:11;;;;;;;15.20;9.98;;;;;;;4.65;100.00;100266.94;4989148;28;20081;-27
2023/03/24 01:34:36;;;;;;;14.75;9.40;;;;;;;4.48;100.00;100275.97;4989096;28;20057;-27
2023/03/24 01:37:02;;;;;;;18.70;9.35;;;;;;;4.33;100.00;100274.06;4988707;28;20034;-27
2023/03/24 01:39:28;;;;;;;15.68;9.77;;;;;;;4.57;100.00;100259.06;4988818;28;20030;-27
2023/03/24 01:41:54;;;;;;;14.48;9.38;;;;;;;4.67;100.00;100257.03;4988916;28;20041;-27
2023/03/24 01:44:23;;;;;;;13.07;9.50;;;;;;;4.46;100.00;100254.22;4988858;28;20054;-27
2023/03/24 01:46:48;;;;;;;;;;;;;;;4.33;100.00;100266.16;4989251;28;20030;-28
2023/03/24 01:49:14;;;;;;;13.75;9.07;;;;;;;3.94;100.00;100260.88;4987756;28;19924;-27
2023/03/24 01:51:43;;;;;;;15.60;9.02;;;;;;;3.62;100.00;100265.25;4988883;28;20045;-27
2023/03/24 01:54:18;;;;;;;16.85;9.82;;;;;;;4.29;100.00;100272.78;4988741;28;20453;-27
2023/03/24 01:57:09;;;;;;;33.28;11.45;;;;;;;4.38;100.00;100266.44;4988689;28;20068;-27
2023/03/24 01:59:38;;;;;;;20.10;10.40;;;;;;;4.15;100.00;100244.47;4974440;28;20034;-27
2023/03/24 02:02:05;;;;;;;14.57;9.60;;;;;;;4.39;100.00;100260.19;4988529;28;20845;-27
2023/03/24 02:04:37;;;;;;;17.48;10.85;;;;;;;4.14;100.00;100259.47;4988604;28;20062;-27
2023/03/24 02:07:11;;;;;;;22.85;11.05;;;;;;;3.75;100.00;100255.00;4988619;28;20030;-27
2023/03/24 02:09:36;;;;;;;16.67;10.13;;;;;;;4.11;100.00;100265.09;4988718;28;20038;-27
2023/03/24 02:12:05;;;;;;;16.40;11.25;;;;;;;4.25;100.00;100238.94;4988463;28;20088;-27
2023/03/24 02:14:30;;;;;;;18.27;12.52;;;;;;;3.86;100.00;100263.53;4987800;28;20070;-27
2023/03/24 02:17:11;;;;;;;18.77;11.55;;;;;;;4.18;100.00;100259.94;4987919;28;20077;-27
2023/03/24 02:19:48;;;;;;;18.65;11.25;;;;;;;4.12;100.00;100264.09;4988279;28;20030;-27
2023/03/24 02:22:32;;;;;;;22.13;12.40;;;;;;;4.59;100.00;100267.66;4988117;28;20034;-27
2023/03/24 02:25:44;;;;;;;26.55;12.85;;;;;;;4.36;100.00;100268.44;4987996;28;20038;-27
2023/03/24 02:28:28;;;;;;;21.98;11.32;;;;;;;3.92;100.00;100261.03;4974955;28;20061;-27
2023/03/24 02:30:56;;;;;;;17.15;10.07;;;;;;;3.54;100.00;100262.66;4987904;28;20468;-27
2023/03/24 02:33:40;;;;;;;15.63;10.50;;;;;;;3.82;100.00;100263.88;4988006;28;20033;-27
2023/03/24 02:36:11;;;;;;;21.48;11.30;;;;;;;3.68;100.00;100269.88;4987707;28;20485;-27
2023/03/24 02:39:04;;;;;;;35.67;12.15;;;;;;;3.38;100.00;100274.03;4987769;28;20069;-27
2023/03/24 02:41:33;;;;;;;47.92;11.88;;;;;;;3.37;100.00;100275.88;4988061;28;20034;-27
2023/03/24 02:44:32;;;;;;;31.15;11.40;;;;;;;3.71;100.00;100281.88;4987738;28;20022;-27
2023/03/24 02:47:25;;;;;;;27.27;12.52;;;;;;;3.74;100.00;100257.78;4987672;28;20564;-27
2023/03/24 02:50:01;;;;;;;21.98;11.75;;;;;;;3.72;100.00;100288.78;4987781;28;20061;-27
2023/03/24 02:52:37;;;;;;;20.52;11.65;;;;;;;3.79;100.00;100298.50;4987523;28;20536;-27
2023/03/24 02:55:14;;;;;;;26.40;12.00;;;;;;;3.95;100.00;100300.28;4987294;28;20026;-27
2023/03/24 02:57:54;;;;;;;35.30;13.77;;;;;;;3.88;100.00;100296.66;4987613;28;20034;-27
2023/03/24 03:00:45;;;;;;;34.80;12.68;;;;;;;3.78;100.00;100302.16;4987302;28;20081;-27
2023/03/24 03:03:26;;;;;;;31.55;11.50;;;;;;;4.09;100.00;100303.22;4987180;28;20030;-27
2023/03/24 03:05:57;;;;;;;32.72;12.40;;;;;;;3.72;100.00;100291.44;4987552;28;20026;-27
2023/03/24 03:08:26;;;;;;;28.17;10.63;;;;;;;3.95;100.00;100281.81;4987628;28;20568;-27
2023/03/24 03:10:53;;;;;;;29.48;11.65;;;;;;;3.57;100.00;100294.75;4987419;28;20041;-27
2023/03/24 03:13:31;;;;;;;33.63;12.50;;;;;;;3.24;100.00;100279.97;4987183;28;20018;-27
2023/03/24 03:16:03;;;;;;;44.93;14.57;;;;;;;3.37;100.00;100283.78;4987401;28;20121;-27
2023/03/24 03:18:38;;;;;;;39.53;12.50;;;;;;;3.56;100.00;100305.50;4987374;28;20054;-27
2023/03/24 03:21:08;;;;;;;26.50;11.85;;;;;;;3.12;100.00;100297.94;4987196;28;20113;-27
2023/03/24 03:24:00;;;;;;;31.05;12.07;;;;;;;3.06;100.00;100307.31;4987232;28;20142;-27
2023/03/24 03:26:31;;;;;;;55.60;14.02;;;;;;;3.43;100.00;100316.53;4987123;28;20032;-27
2023/03/24 03:29:04;;;;;;;46.63;13.27;;;;;;;3.46;100.00;100294.31;4987138;28;20027;-27
2023/03/24 03:31:42;;;;;;;40.05;13.10;;;;;;;4.09;100.00;100337.53;4987099;28;20422;-27
2023/03/24 03:34:15;;;;;;;27.17;11.00;;;;;;;4.10;100.00;100342.63;4987060;28;20027;-27
2023/03/24 03:36:54;;;;;;;13.60;8.10;;;;;;;3.86;100.00;100340.03;4987237;28;20528;-27
2023/03/24 03:39:32;;;;;;;11.00;7.30;;;;;;;3.93;100.00;100320.75;4987189;28;20044;-27
2023/03/24 03:41:57;;;;;;;10.27;7.68;;;;;;;3.24;100.00;100287.88;4987160;28;20050;-27
2023/03/24 03:44:24;;;;;;;15.45;7.60;;;;;;;3.10;100.00;100277.00;4987084;28;20035;-27
2023/03/24 03:46:49;;;;;;;28.60;8.57;;;;;;;2.95;100.00;100278.66;4986803;28;20066;-27
2023/03/24 03:49:15;;;;;;;23.25;8.85;;;;;;;2.65;100.00;100269.56;4986727;28;20066;-27
2023/03/24 03:51:41;;;;;;;20.10;8.20;;;;;;;2.78;100.00;100268.13;4987047;28;20031;-27
2023/03/24 03:54:11;;;;;;;38.33;9.60;;;;;;;2.50;100.00;100258.84;4987052;28;20018;-27
2023/03/24 03:56:37;;;;;;;18.02;9.00;;;;;;;2.32;100.00;100278.22;4986839;28;20038;-27
2023/03/24 03:59:05;;;;;;;20.25;8.70;;;;;;;2.45;100.00;100283.00;4986586;28;20054;-26
2023/03/24 04:01:35;;;;;;;27.95;15.40;;;;;;;2.19;100.00;100256.81;4986819;28;20080;-27
2023/03/24 04:04:19;;;;;;;28.92;10.55;;;;;;;2.41;100.00;100256.22;4986779;28;20046;-27
2023/03/24 04:06:56;;;;;;;41.35;13.10;;;;;;;2.63;100.00;100271.53;4986827;28;20034;-27
2023/03/24 04:10:04;;;;;;;110.70;44.58;;;;;;;2.90;100.00;100275.69;4986798;28;20109;-27
2023/03/24 04:12:42;;;;;;;53.42;19.98;;;;;;;3.40;100.00;100285.25;4956294;28;20465;-27
2023/03/24 04:15:13;;;;;;;40.00;16.75;;;;;;;3.77;100.00;100274.13;4990390;28;20026;-27
2023/03/24 04:17:52;;;;;;;36.20;16.52;;;;;;;3.47;100.00;100277.47;4990768;28;20153;-27
2023/03/24 04:20:31;;;;;;;77.90;19.60;;;;;;;3.76;100.00;100287.47;4990902;28;20041;-27
2023/03/24 04:23:13;;;;;;;209.63;79.80;;;;;;;3.97;100.00;100290.38;4990670;28;20046;-27
2023/03/24 04:25:55;;;;;;;59.03;18.17;;;;;;;4.06;100.00;100283.25;4990784;28;20089;-27
2023/03/24 04:28:58;;;;;;;37.50;13.98;;;;;;;4.00;100.00;100291.84;4990514;28;20034;-27
2023/03/24 04:31:39;;;;;;;37.55;13.43;;;;;;;3.69;100.00;100275.97;4972645;28;20465;-26
2023/03/24 04:34:32;;;;;;;30.80;14.60;;;;;;;3.89;100.00;100271.94;4990195;28;20030;-27
2023/03/24 04:37:07;;;;;;;53.78;22.63;;;;;;;3.65;100.00;100269.38;4990123;28;20560;-26
2023/03/24 04:39:37;;;;;;;88.97;35.20;;;;;;;3.78;100.00;100277.56;4989983;28;20022;-27
2023/03/24 04:42:08;;;;;;;74.78;37.53;;;;;;;4.13;100.00;100284.22;4990102;28;20548;-27
2023/03/24 04:44:40;;;;;;;60.00;30.60;;;;;;;4.11;100.00;100290.69;4989996;28;20117;-27
2023/03/24 04:47:07;;;;;;;75.30;33.10;;;;;;;3.90;100.00;100270.13;4989695;28;20026;-27
2023/03/24 04:49:37;;;;;;;54.08;25.20;;;;;;;4.25;100.00;100287.31;4990185;28;20054;-27
2023/03/24 04:52:03;;;;;;;46.70;22.48;;;;;;;4.47;100.00;100282.25;4989897;28;20070;-27
2023/03/24 04:54:29;;;;;;;38.70;20.35;;;;;;;4.45;100.00;100292.97;4989797;28;20054;-27
2023/03/24 04:56:57;;;;;;;31.75;16.70;;;;;;;4.35;100.00;100293.22;4989522;28;20040;-27
2023/03/24 04:59:23;;;;;;;50.92;17.35;;;;;;;4.45;100.00;100292.97;4989509;28;20514;-28
2023/03/24 05:01:49;;;;;;;42.50;17.77;;;;;;;4.81;100.00;100287.97;4989941;28;20036;-27
2023/03/24 05:04:19;;;;;;;44.22;16.98;;;;;;;4.87;100.00;100298.84;4989700;28;20057;-27
2023/03/24 05:06:48;;;;;;;46.95;17.50;;;;;;;4.92;100.00;100296.50;4989736;28;20031;-27
2023/03/24 05:09:16;;;;;;;45.78;16.85;;;;;;;4.93;100.00;100298.16;4989706;28;20047;-27
2023/03/24 05:11:42;;;;;;;46.88;17.83;;;;;;;4.95;100.00;100301.44;4989864;28;20510;-27
2023/03/24 05:14:08;;;;;;;52.47;18.60;;;;;;;4.82;100.00;100305.47;4989532;28;20034;-27
2023/03/24 05:16:34;;;;;;;54.40;21.23;;;;;;;4.94;100.00;100300.59;4989136;28;20030;-27
2023/03/24 05:19:00;;;;;;;52.40;21.30;;;;;;;4.73;100.00;100311.00;4989647;28;20034;-27
2023/03/24 05:21:26;;;;;;;43.08;19.58;;;;;;;4.69;100.00;100313.16;4990015;28;20050;-27
2023/03/24 05:23:54;;;;;;;33.83;17.23;;;;;;;4.67;100.00;100312.50;4989207;28;20108;-27
2023/03/24 05:26:21;;;;;;;42.85;20.00;;;;;;;4.96;100.00;100321.56;4989340;28;20023;-27
2023/03/24 05:28:46;;;;;;;71.27;29.20;;;;;;;5.14;100.00;100323.91;4989169;28;20046;-27
2023/03/24 05:31:12;;;;;;;78.32;33.13;;;;;;;4.99;100.00;100327.34;4989095;28;20762;-27
2023/03/24 05:33:38;;;;;;;130.80;34.97;;;;;;;5.22;100.00;100331.78;4989185;28;20077;-27
2023/03/24 05:36:03;;;;;;;89.18;35.20;;;;;;;5.32;100.00;100331.56;4989020;28;20117;-27
2023/03/24 05:38:29;;;;;;;98.53;32.70;;;;;;;5.79;100.00;100333.09;4989175;28;20033;-27
2023/03/24 05:41:00;;;;;;;94.60;32.28;;;;;;;5.62;100.00;100351.78;4971242;28;20026;-28
2023/03/24 05:43:26;;;;;;;597.58;309.73;;;;;;;5.63;100.00;100350.78;4989192;28;20069;-27
2023/03/24 05:45:52;;;;;;;521.30;250.02;;;;;;;5.82;100.00;100344.16;4988857;28;20030;-27
2023/03/24 05:48:18;;;;;;;102.68;40.33;;;;;;;6.09;100.00;100327.84;4988844;28;20054;-27
2023/03/24 05:50:44;;;;;;;151.95;60.90;;;;;;;6.03;100.00;100348.78;4988695;28;20069;-27
2023/03/24 05:53:10;;;;;;;62.22;23.95;;;;;;;5.85;100.00;100356.22;4988532;28;20022;-27
2023/03/24 05:55:35;;;;;;;47.92;23.80;;;;;;;5.87;100.00;100356.84;4988926;28;20022;-27
2023/03/24 05:58:01;;;;;;;59.63;24.17;;;;;;;5.66;100.00;100362.00;4988645;28;20030;-27
2023/03/24 06:00:30;;;;;;;55.75;24.02;;;;;;;5.69;100.00;100349.25;4988367;28;20038;-27
2023/03/24 06:02:56;;;;;;;53.15;23.92;;;;;;;5.49;100.00;100362.13;4988446;28;20442;-27
2023/03/24 06:05:22;;;;;;;85.65;33.80;;;;;;;6.07;100.00;100361.63;4988726;28;20029;-27
2023/03/24 06:07:48;;;;;;;69.60;22.98;;;;;;;5.97;100.00;100362.72;4988525;28;20034;-27
2023/03/24 06:10:17;;;;;;;54.95;17.65;;;;;;;6.15;100.00;100364.19;4988399;28;20041;-27
2023/03/24 06:12:43;;;;;;;40.55;15.88;;;;;;;5.89;100.00;100359.31;4988529;28;20084;-27
2023/03/24 06:15:10;;;;;;;64.18;17.30;;;;;;;6.05;100.00;100364.47;4988173;28;20468;-27
2023/03/24 06:17:41;;;;;;;46.55;16.98;;;;;;;5.95;100.00;100369.22;4988731;28;20026;-27
2023/03/24 06:20:13;;;;;;;38.40;17.73;;;;;;;6.06;100.00;100370.59;4988421;28;20117;-27
2023/03/24 06:22:39;;;;;;;50.22;17.75;;;;;;;6.28;100.00;100361.72;4988328;28;20033;-27
2023/03/24 06:25:05;;;;;;;38.38;17.40;;;;;;;5.88;100.00;100363.78;4988048;28;20772;-27
2023/03/24 06:27:31;;;;;;;86.10;28.10;;;;;;;6.41;100.00;100369.84;4988191;28;20030;-27
2023/03/24 06:29:56;;;;;;;45.03;16.67;;;;;;;6.44;100.00;100361.53;4988053;28;20041;-27
2023/03/24 06:32:22;;;;;;;41.67;16.98;;;;;;;6.58;100.00;100367.81;4988199;28;20120;-27
2023/03/24 06:34:47;;;;;;;52.05;16.42;;;;;;;6.84;100.00;100374.44;4987335;28;20030;-27
2023/03/24 06:37:13;;;;;;;32.63;16.70;;;;;;;6.81;100.00;100372.16;4987886;28;20065;-28
2023/03/24 06:39:39;;;;;;;35.25;16.98;;;;;;;7.00;100.00;100366.25;4988358;28;20027;-27
2023/03/24 06:42:05;;;;;;;53.47;15.98;;;;;;;7.04;100.00;100372.81;4987882;28;20031;-27
2023/03/24 06:44:30;;;;;;;54.75;16.38;;;;;;;7.14;100.00;100379.66;4987925;28;20030;-27
2023/03/24 06:46:56;;;;;;;36.13;18.30;;;;;;;7.23;100.00;100381.16;4987785;28;20110;-27
2023/03/24 06:49:21;;;;;;;43.13;17.48;;;;;;;7.26;100.00;100369.38;4987772;28;20461;-27
2023/03/24 06:51:47;;;;;;;29.90;15.70;;;;;;;7.42;100.00;100379.72;4987500;28;20469;-28
2023/03/24 06:54:12;;;;;;;50.78;16.80;;;;;;;7.36;100.00;100381.31;4987619;28;20413;-28
2023/03/24 06:56:38;;;;;;;36.42;17.10;;;;;;;7.41;100.00;100368.28;4987596;28;20041;-28
2023/03/24 06:59:03;;;;;;;35.67;17.88;;;;;;;8.15;100.00;100367.00;4987274;28;20433;-28
2023/03/24 07:01:29;;;;;;;45.20;18.83;;;;;;;8.05;100.00;100377.97;4986994;28;20034;-28
2023/03/24 07:03:55;;;;;;;32.75;16.83;;;;;;;7.70;100.00;100384.25;4984274;28;20030;-28
2023/03/24 07:06:21;;;;;;;37.78;18.23;;;;;;;7.84;100.00;100380.66;4987420;28;20085;-28
2023/03/24 07:08:50;;;;;;;49.78;18.63;;;;;;;8.21;100.00;100382.16;4987661;28;20092;-28
2023/03/24 07:11:15;;;;;;;;;;;;;;;8.18;100.00;100381.72;4987955;28;20113;-28
2023/03/24 07:13:43;;;;;;;31.15;17.60;;;;;;;8.34;100.00;100378.75;4986972;28;20373;-28
2023/03/24 07:16:10;;;;;;;36.00;20.15;;;;;;;8.32;100.00;100378.13;4987268;28;20026;-28
2023/03/24 07:18:39;;;;;;;28.13;18.60;;;;;;;8.78;100.00;100380.19;4987109;28;20030;-28
2023/03/24 07:21:05;;;;;;;;;;;;;;;8.93;100.00;100389.84;4987762;28;20278;-28
2023/03/24 07:23:31;;;;;;;69.38;56.58;;;;;;;9.24;100.00;100392.81;4987004;28;19933;-28
2023/03/24 07:25:57;;;;;;;33.67;20.50;;;;;;;9.47;100.00;100391.59;4987258;28;20078;-28
2023/03/24 07:28:22;;;;;;;35.75;21.95;;;;;;;9.62;100.00;100389.59;4987417;28;20108;-28
2023/03/24 07:30:47;;;;;;;32.45;21.08;;;;;;;9.45;100.00;100373.16;4987046;28;20022;-28
2023/03/24 07:33:13;;;;;;;32.22;21.27;;;;;;;9.47;100.00;100372.97;4987300;28;20030;-28
2023/03/24 07:35:39;;;;;;;34.33;22.50;;;;;;;9.58;100.00;100372.38;4986758;28;20034;-28
2023/03/24 07:38:05;;;;;;;30.83;20.67;;;;;;;9.90;100.00;100367.22;4987428;28;20030;-28
2023/03/24 07:40:30;;;;;;;30.58;21.02;;;;;;;9.90;100.00;100369.88;4986833;28;20034;-28
2023/03/24 07:42:59;;;;;;;32.92;21.73;;;;;;;9.81;100.00;100344.50;4986757;28;20038;-28
2023/03/24 07:45:26;;;;;;;32.17;21.60;;;;;;;10.05;100.00;100362.50;4986617;28;20062;-28
2023/03/24 07:47:51;;;;;;;29.90;20.25;;;;;;;10.13;100.00;100339.31;4989830;28;20030;-29
2023/03/24 07:50:17;;;;;;;36.95;26.50;;;;;;;10.60;100.00;100362.16;4991036;28;20065;-28
2023/03/24 07:52:46;;;;;;;27.02;17.70;;;;;;;10.58;100.00;100356.22;4990968;28;20046;-28
2023/03/24 07:55:12;;;;;;;25.52;17.85;;;;;;;10.88;100.00;100355.66;4990868;28;20026;-28
2023/03/24 07:57:40;;;;;;;27.13;18.77;;;;;;;11.21;100.00;100338.63;4991034;28;20041;-28
2023/03/24 08:00:16;;;;;;;26.92;18.48;;;;;;;11.71;95.97;100348.47;4990656;28;20061;-28
2023/03/24 08:02:43;;;;;;;24.83;16.63;;;;;;;11.60;96.00;100358.03;4990751;28;20049;-28
2023/03/24 08:05:12;;;;;;;26.85;17.67;;;;;;;11.57;96.06;100359.31;4990668;28;20034;-28
2023/03/24 08:07:41;;;;;;;28.20;17.58;;;;;;;11.88;94.94;100354.91;4990747;28;20125;-28
2023/03/24 08:10:08;;;;;;;23.17;16.55;;;;;;;12.17;92.97;100358.75;4990599;28;20034;-28
2023/03/24 08:12:34;;;;;;;23.27;17.33;;;;;;;12.40;91.60;100347.41;4990574;28;20088;-28
2023/03/24 08:14:59;;;;;;;23.70;17.20;;;;;;;12.39;93.39;100345.75;4990678;28;20084;-28
2023/03/24 08:17:25;;;;;;;24.95;17.65;;;;;;;12.58;93.43;100332.38;4990386;28;20030;-28
2023/03/24 08:19:50;;;;;;;22.52;16.15;;;;;;;13.05;90.73;100343.25;4990484;28;20030;-28
2023/03/24 08:22:16;;;;;;;26.95;19.65;;;;;;;13.19;92.33;100344.69;4990550;28;20027;-28
2023/03/24 08:24:41;;;;;;;31.90;22.35;;;;;;;13.31;89.13;100342.06;4990522;28;20082;-27
2023/03/24 08:27:07;;;;;;;33.97;24.83;;;;;;;13.32;93.74;100340.22;4990334;28;20042;-28
2023/03/24 08:29:33;;;;;;;23.90;18.15;;;;;;;13.74;87.00;100329.44;4990094;28;20089;-28
2023/03/24 08:32:00;;;;;;;20.70;14.43;;;;;;;13.91;85.07;100335.69;4990527;28;20044;-28
2023/03/24 08:34:26;;;;;;;22.02;17.00;;;;;;;14.11;80.89;100329.16;4990442;28;20030;-28
2023/03/24 08:36:51;;;;;;;20.23;13.95;;;;;;;14.28;83.57;100330.03;4990096;28;20137;-27
2023/03/24 08:39:17;;;;;;;20.13;13.80;;;;;;;14.21;80.59;100334.75;4990054;28;20109;-28
2023/03/24 08:41:44;;;;;;;19.38;14.02;;;;;;;14.21;84.34;100319.47;4990243;28;20130;-28
2023/03/24 08:44:10;;;;;;;34.55;29.20;;;;;;;14.80;82.03;100324.66;4990213;28;20113;-28
2023/03/24 08:46:36;;;;;;;25.35;19.27;;;;;;;14.97;82.09;100313.94;4989847;28;20030;-27
2023/03/24 08:49:02;;;;;;;24.85;18.23;;;;;;;15.15;78.86;100318.28;4989963;28;20030;-28
2023/03/24 08:51:27;;;;;;;23.52;18.38;;;;;;;15.19;76.57;100310.56;4989644;28;20461;-28
2023/03/24 08:53:54;;;;;;;14.23;10.45;;;;;;;15.24;70.54;100319.53;4990174;28;20030;-28
2023/03/24 08:56:20;;;;;;;14.48;10.57;;;;;;;15.53;72.29;100315.94;4989684;28;20520;-27
2023/03/24 08:58:47;;;;;;;27.00;24.10;;;;;;;15.80;72.83;100308.06;4989008;28;20053;-28
2023/03/24 09:01:14;;;;;;;15.57;11.47;;;;;;;15.86;70.83;100307.06;4989431;28;20577;-28
2023/03/24 09:03:40;;;;;;;16.35;11.70;;;;;;;15.75;72.43;100305.28;4989704;28;20490;-28
2023/03/24 09:06:09;;;;;;;49.00;38.65;;;;;;;15.89;74.73;100305.75;4989588;28;20037;-28
2023/03/24 09:08:34;;;;;;;26.95;21.55;;;;;;;16.16;72.80;100295.06;4989477;28;20085;-27
2023/03/24 09:11:02;;;;;;;26.80;22.23;;;;;;;16.37;72.15;100294.25;4989628;28;20042;-28
2023/03/24 09:13:27;;;;;;;19.77;16.20;;;;;;;16.50;70.99;100294.94;4989482;28;20490;-28
2023/03/24 09:15:58;;;;;;;21.48;18.90;;;;;;;16.54;69.52;100271.81;4989515;28;20038;-26
2023/03/24 09:18:23;;;;;;;16.70;11.48;;;;;;;16.74;69.59;100298.94;4989356;28;20023;-28
2023/03/24 09:20:49;;;;;;;19.65;15.50;;;;;;;17.16;71.68;100281.31;4989555;28;20041;-28
2023/03/24 09:23:15;;;;;;;15.10;10.75;;;;;;;16.70;67.69;100295.13;4988499;28;20135;-28
2023/03/24 09:25:40;;;;;;;18.63;11.75;;;;;;;16.67;70.93;100291.09;4988494;28;20061;-28
2023/03/24 09:28:07;;;;;;;16.50;12.13;;;;;;;16.86;70.51;100288.88;4989071;28;20052;-27
2023/03/24 09:30:33;;;;;;;23.75;16.63;;;;;;;16.87;68.88;100287.78;4989393;28;20622;-28
2023/03/24 09:32:59;;;;;;;15.15;11.10;;;;;;;17.00;67.08;100288.44;4989225;28;20026;-28
2023/03/24 09:35:26;;;;;;;16.50;11.52;;;;;;;17.10;70.79;100282.31;4988836;28;20041;-28
2023/03/24 09:37:52;;;;;;;20.40;12.35;;;;;;;16.99;68.14;100281.44;4989010;28;20049;-28
2023/03/24 09:40:22;;;;;;;15.15;10.18;;;;;;;17.07;66.31;100275.56;4988881;28;20064;-28
2023/03/24 09:42:55;;;;;;;15.88;12.93;;;;;;;17.27;68.47;100264.97;4989064;28;20138;-28
2023/03/24 09:45:22;;;;;;;20.02;13.82;;;;;;;17.50;61.70;100276.44;4988840;28;20038;-28
2023/03/24 09:47:55;;;;;;;12.55;10.40;;;;;;;17.55;66.04;100268.41;4988705;28;20030;-28
2023/03/24 09:50:33;;;;;;;16.15;11.05;;;;;;;17.78;59.22;100255.56;4988834;28;20808;-28
2023/03/24 09:53:07;;;;;;;17.63;13.75;;;;;;;18.11;61.08;100264.38;4988907;28;20125;-28
2023/03/24 09:55:38;;;;;;;11.88;8.98;;;;;;;18.03;54.53;100261.09;4988487;28;20119;-26
2023/03/24 09:58:07;;;;;;;11.20;8.32;;;;;;;18.33;56.21;100256.91;4971350;28;20048;-28
2023/03/24 10:00:33;;;;;;;11.98;8.48;;;;;;;18.54;61.07;100270.47;4988280;28;20042;-28
2023/03/24 10:03:20;;;;;;;11.52;8.60;;;;;;;18.13;58.83;100246.03;4988622;28;20041;-28
2023/03/24 10:06:08;;;;;;;15.45;11.65;;;;;;;18.10;56.59;100260.06;4988626;28;20062;-28
2023/03/24 10:08:35;;;;;;;13.35;10.07;;;;;;;18.70;54.46;100264.00;4988000;28;20026;-28
2023/03/24 10:11:12;;;;;;;12.70;8.93;;;;;;;18.99;54.53;100263.53;4987763;28;20093;-28
2023/03/24 10:13:57;;;;;;;20.00;17.90;;;;;;;19.04;55.08;100245.41;4988241;28;20527;-27
2023/03/24 10:16:40;;;;;;;10.63;7.78;;;;;;;19.55;51.06;100258.03;4988237;28;20116;-28
2023/03/24 10:19:33;;;;;;;10.35;7.43;;;;;;;19.91;47.74;100247.16;4988356;28;20105;-28
2023/03/24 10:22:19;;;;;;;14.43;8.75;;;;;;;19.77;50.14;100246.13;4988232;28;20066;-28
2023/03/24 10:24:54;;;;;;;10.80;7.65;;;;;;;19.35;53.12;100244.56;4988361;28;20034;-28
2023/03/24 10:27:40;;;;;;;14.65;10.00;;;;;;;19.65;53.58;100236.38;4988059;28;20034;-28
2023/03/24 10:30:11;;;;;;;12.93;7.50;;;;;;;19.56;50.08;100238.03;4987874;28;20073;-28
2023/03/24 10:32:37;;;;;;;10.18;7.43;;;;;;;19.91;50.76;100225.50;4987885;28;20032;-28
2023/03/24 10:35:08;;;;;;;13.13;8.43;;;;;;;19.85;50.46;100232.03;4987892;28;20034;-26
2023/03/24 10:37:35;;;;;;;14.55;9.90;;;;;;;19.65;49.83;100228.25;4987782;28;20039;-28
2023/03/24 10:40:05;;;;;;;44.72;40.10;;;;;;;19.49;51.72;100229.38;4987711;28;20604;-28
2023/03/24 10:42:33;;;;;;;630.47;561.35;;;;;;;19.23;49.63;100229.44;4987524;28;20791;-28
2023/03/24 10:44:59;;;;;;;651.97;464.77;;;;;;;19.35;48.65;100237.28;4987668;28;20088;-28
2023/03/24 10:47:29;;;;;;;18.45;13.77;;;;;;;19.88;46.93;100228.78;4987864;28;20066;-28
2023/03/24 10:50:00;;;;;;;17.08;12.88;;;;;;;20.12;44.53;100206.47;4987511;28;20177;-28
2023/03/24 10:52:27;;;;;;;60.00;44.85;;;;;;;20.00;44.36;100218.44;4987914;28;20030;-28
2023/03/24 10:55:02;;;;;;;11.55;6.65;;;;;;;20.38;46.29;100217.97;4987524;28;20026;-28
2023/03/24 10:57:28;;;;;;;8.85;5.32;;;;;;;20.10;43.25;100216.75;4987351;28;20117;-28
2023/03/24 11:00:21;;;;;;;8.88;5.57;;;;;;;20.25;43.02;100213.97;4987243;28;20046;-28
2023/03/24 11:02:56;;;;;;;9.60;6.07;;;;;;;20.82;43.14;100185.44;4987302;28;20042;-28
2023/03/24 11:05:29;;;;;;;8.20;5.00;;;;;;;21.34;41.96;100206.63;4987588;28;20023;-28
2023/03/24 11:08:16;;;;;;;12.25;8.23;;;;;;;21.07;43.61;100189.00;4987373;28;20046;-28
2023/03/24 11:10:42;;;;;;;9.35;6.95;;;;;;;21.23;41.98;100193.19;4987446;28;20101;-28
2023/03/24 11:13:20;;;;;;;7.68;5.55;;;;;;;20.64;41.07;100181.50;4986801;28;20034;-28
2023/03/24 11:16:13;;;;;;;42.17;33.40;;;;;;;21.57;44.02;100183.34;4987544;28;20122;-28
2023/03/24 11:19:02;;;;;;;18.48;11.55;;;;;;;22.05;41.28;100178.66;4987160;28;20513;-28
2023/03/24 11:21:33;;;;;;;8.55;6.15;;;;;;;21.75;43.84;100162.78;4987196;28;20109;-28
2023/03/24 11:24:11;;;;;;;6.60;4.45;;;;;;;22.23;39.24;100168.94;4987403;28;20428;-28
2023/03/24 11:26:39;;;;;;;27.13;21.08;;;;;;;22.38;42.88;100170.63;4986993;28;20022;-29